Time;durP1;ratioP1;P1;durP2;ratioP2;P2;SDS_P1;SDS_P2;PMS_P1;PMS_P2;Temp;Humidity;BMP_temperature;BMP_pressure;BME280_temperature;BME280_humidity;BME280_pressure;Samples;Min_cycle;Max_cycle;Signal;HPM_P1;HPM_P2
2021/04/18 00:01:59;;;;;;;1.83;0.80;;;6.80;66.90;;;;;;4892247;29;20052;-72
2021/04/18 00:04:26;;;;;;;4.23;1.10;;;6.80;67.10;;;;;;4881300;29;20044;-72
2021/04/18 00:06:52;;;;;;;1.83;0.70;;;6.80;67.30;;;;;;4897260;29;20055;-72
2021/04/18 00:09:19;;;;;;;3.70;0.87;;;6.80;67.10;;;;;;4873308;29;20045;-73
2021/04/18 00:11:46;;;;;;;2.97;0.60;;;6.80;67.30;;;;;;4881285;29;20056;-73
2021/04/18 00:14:12;;;;;;;1.70;0.70;;;6.80;67.60;;;;;;4861124;29;20135;-72
2021/04/18 00:16:39;;;;;;;1.80;0.50;;;6.80;67.60;;;;;;4896230;29;20048;-73
2021/04/18 00:19:07;;;;;;;2.07;0.67;;;6.80;67.70;;;;;;4896805;29;20634;-72
2021/04/18 00:21:34;;;;;;;1.60;0.60;;;6.80;67.80;;;;;;4882467;29;20079;-72
2021/04/18 00:24:01;;;;;;;2.37;0.77;;;6.70;67.90;;;;;;4895756;29;20052;-71
2021/04/18 00:26:28;;;;;;;1.63;0.50;;;6.70;68.10;;;;;;4873507;29;20048;-70
2021/04/18 00:28:55;;;;;;;1.97;0.50;;;6.70;68.10;;;;;;4850292;29;20064;-73
2021/04/18 00:31:21;;;;;;;2.10;0.70;;;6.70;68.30;;;;;;4897808;29;20481;-72
2021/04/18 00:33:48;;;;;;;2.03;0.50;;;6.70;68.30;;;;;;4891252;29;20131;-72
2021/04/18 00:36:25;;;;;;;1.40;0.53;;;6.70;68.40;;;;;;4894610;29;20041;-72
2021/04/18 00:38:52;;;;;;;3.03;0.50;;;6.60;68.50;;;;;;4884737;29;20041;-72
2021/04/18 00:41:18;;;;;;;2.63;0.90;;;6.60;68.70;;;;;;4879187;29;20048;-73
2021/04/18 00:43:45;;;;;;;1.87;0.63;;;6.60;68.80;;;;;;4893606;29;20051;-72
2021/04/18 00:46:12;;;;;;;2.83;0.90;;;6.50;68.80;;;;;;4877423;29;20044;-72
2021/04/18 00:48:43;;;;;;;1.90;0.50;;;6.50;69.00;;;;;;4879551;29;20372;-72
2021/04/18 00:51:12;;;;;;;4.30;0.83;;;6.40;69.20;;;;;;4892359;29;20442;-72
2021/04/18 00:53:39;;;;;;;2.37;0.70;;;6.40;69.30;;;;;;4891338;29;20040;-72
2021/04/18 00:56:07;;;;;;;2.73;0.60;;;6.30;69.30;;;;;;4881003;29;20393;-70
2021/04/18 00:58:35;;;;;;;2.93;0.83;;;6.30;69.40;;;;;;4896731;29;20052;-70
2021/04/18 01:01:04;;;;;;;2.40;0.50;;;6.30;69.50;;;;;;4883818;29;20041;-70
2021/04/18 01:03:32;;;;;;;2.00;0.80;;;6.30;69.60;;;;;;4876949;29;20422;-70
2021/04/18 01:06:01;;;;;;;1.70;0.60;;;6.20;69.60;;;;;;4878489;29;20048;-70
2021/04/18 01:08:29;;;;;;;2.27;0.67;;;6.20;69.70;;;;;;4875527;29;20099;-70
2021/04/18 01:10:56;;;;;;;2.77;0.50;;;6.20;69.80;;;;;;4870447;29;20067;-70
2021/04/18 01:13:23;;;;;;;2.17;0.70;;;6.10;69.90;;;;;;4895648;29;20440;-70
2021/04/18 01:15:51;;;;;;;2.80;0.80;;;6.10;70.00;;;;;;4895558;29;20042;-70
2021/04/18 01:18:18;;;;;;;2.17;0.60;;;6.10;70.10;;;;;;4880159;29;20048;-70
2021/04/18 01:20:46;;;;;;;3.33;0.67;;;6.10;70.20;;;;;;4870046;29;20096;-70
2021/04/18 01:23:45;;;;;;;0.63;0.30;;;6.10;70.30;;;;;;4883526;29;20057;-70
2021/04/18 01:26:25;;;;;;;1.90;0.40;;;6.00;70.30;;;;;;4869076;29;20053;-70
2021/04/18 01:28:55;;;;;;;2.97;0.70;;;6.00;70.30;;;;;;4893269;29;20041;-70
2021/04/18 01:31:22;;;;;;;2.77;0.33;;;6.00;70.50;;;;;;4895096;29;20049;-73
2021/04/18 01:33:49;;;;;;;4.03;0.60;;;6.00;70.50;;;;;;4861887;29;20161;-72
2021/04/18 01:36:19;;;;;;;3.17;0.60;;;5.90;70.50;;;;;;4865133;29;20139;-72
2021/04/18 01:38:47;;;;;;;1.87;0.57;;;5.90;70.70;;;;;;4863862;29;20147;-72
2021/04/18 01:41:13;;;;;;;4.90;0.70;;;5.90;70.80;;;;;;4895896;29;20095;-72
2021/04/18 01:43:40;;;;;;;2.13;0.60;;;5.90;70.90;;;;;;4884175;29;20049;-73
2021/04/18 01:46:09;;;;;;;2.63;0.57;;;5.90;70.90;;;;;;4864218;29;20048;-72
2021/04/18 01:48:37;;;;;;;2.37;0.50;;;5.80;70.80;;;;;;4884917;29;20059;-72
2021/04/18 01:51:06;;;;;;;2.53;0.40;;;5.80;70.90;;;;;;4894478;29;20521;-72
2021/04/18 01:53:35;;;;;;;2.63;0.77;;;5.80;71.00;;;;;;4889700;29;20044;-72
2021/04/18 01:56:03;;;;;;;1.17;0.50;;;5.70;71.00;;;;;;4878254;29;20048;-72
2021/04/18 01:58:33;;;;;;;3.53;0.70;;;5.70;71.10;;;;;;4895455;29;20119;-72
2021/04/18 02:01:19;;;;;;;2.07;0.80;;;5.70;71.20;;;;;;4885750;29;20166;-72
2021/04/18 02:03:47;;;;;;;2.20;0.60;;;5.60;71.30;;;;;;4853021;29;20136;-72
2021/04/18 02:06:16;;;;;;;2.63;0.70;;;5.60;71.30;;;;;;4874261;29;20462;-72
2021/04/18 02:08:50;;;;;;;2.93;0.60;;;5.50;71.30;;;;;;4869592;29;20128;-72
2021/04/18 02:11:24;;;;;;;2.50;0.60;;;5.50;71.40;;;;;;4879589;29;20061;-72
2021/04/18 02:13:51;;;;;;;2.47;0.63;;;5.50;71.50;;;;;;4876636;29;20044;-72
2021/04/18 02:16:50;;;;;;;1.60;0.40;;;5.50;71.60;;;;;;4859068;29;20048;-72
2021/04/18 02:19:18;;;;;;;3.97;0.97;;;5.50;71.60;;;;;;4897070;29;20050;-72
2021/04/18 02:21:47;;;;;;;3.63;0.63;;;5.40;71.70;;;;;;4882068;29;20049;-72
2021/04/18 02:24:14;;;;;;;1.97;0.40;;;5.40;71.80;;;;;;4873483;29;20056;-72
2021/04/18 02:26:42;;;;;;;1.90;0.60;;;5.40;71.90;;;;;;4885719;29;20469;-73
2021/04/18 02:29:12;;;;;;;1.47;0.70;;;5.40;72.00;;;;;;4892044;29;20029;-72
2021/04/18 02:31:51;;;;;;;2.80;0.87;;;5.40;72.10;;;;;;4875007;29;20089;-72
2021/04/18 02:34:18;;;;;;;2.83;0.77;;;5.40;72.20;;;;;;4883926;29;20064;-72
2021/04/18 02:36:45;;;;;;;2.93;0.60;;;5.30;72.20;;;;;;4869204;29;20549;-72
2021/04/18 02:39:12;;;;;;;1.87;0.50;;;5.30;72.40;;;;;;4864074;29;20052;-72
2021/04/18 02:41:39;;;;;;;4.23;0.90;;;5.30;72.50;;;;;;4865371;29;20131;-72
2021/04/18 02:44:07;;;;;;;3.60;0.80;;;5.30;72.60;;;;;;4873055;29;20048;-72
2021/04/18 02:46:35;;;;;;;3.10;1.00;;;5.30;72.60;;;;;;4875463;29;20045;-70
2021/04/18 02:49:04;;;;;;;1.00;0.40;;;5.30;72.70;;;;;;4892976;29;20040;-68
2021/04/18 02:51:33;;;;;;;1.43;0.70;;;5.30;73.20;;;;;;4875851;29;20044;-70
2021/04/18 02:54:01;;;;;;;1.13;0.43;;;5.30;72.90;;;;;;4889145;29;20041;-70
2021/04/18 02:56:30;;;;;;;1.70;0.70;;;5.30;73.00;;;;;;4864027;29;20065;-70
2021/04/18 02:59:03;;;;;;;2.95;0.50;;;5.20;73.00;;;;;;4878745;29;20041;-70
2021/04/18 03:01:30;;;;;;;1.97;0.70;;;5.20;73.10;;;;;;4841098;29;20053;-70
2021/04/18 03:03:57;;;;;;;3.23;0.70;;;5.20;73.20;;;;;;4880046;29;20052;-70
2021/04/18 03:06:24;;;;;;;2.87;1.00;;;5.20;73.30;;;;;;4872560;29;20456;-72
2021/04/18 03:08:51;;;;;;;3.17;0.80;;;5.20;73.40;;;;;;4880982;29;20037;-72
2021/04/18 03:11:18;;;;;;;2.40;0.90;;;5.20;73.70;;;;;;4871642;29;20083;-72
2021/04/18 03:13:47;;;;;;;1.67;0.70;;;5.20;73.80;;;;;;4881275;29;20414;-72
2021/04/18 03:16:16;;;;;;;3.57;1.00;;;5.20;73.70;;;;;;4882817;29;20048;-72
2021/04/18 03:18:43;;;;;;;3.33;0.60;;;5.20;73.80;;;;;;4840284;29;20133;-72
2021/04/18 03:21:11;;;;;;;4.13;0.83;;;5.20;73.90;;;;;;4835666;29;20102;-72
2021/04/18 03:23:39;;;;;;;3.57;0.80;;;5.20;73.90;;;;;;4843354;29;20057;-72
2021/04/18 03:26:09;;;;;;;3.50;0.80;;;5.20;74.10;;;;;;4824784;29;20298;-72
2021/04/18 03:28:37;;;;;;;2.73;1.03;;;5.20;74.20;;;;;;4858385;29;20166;-72
2021/04/18 03:31:08;;;;;;;2.67;1.17;;;5.10;74.20;;;;;;4833475;29;20509;-71
2021/04/18 03:33:46;;;;;;;3.33;1.00;;;5.10;74.30;;;;;;4856453;29;20045;-70
2021/04/18 03:36:13;;;;;;;2.87;1.07;;;5.10;74.40;;;;;;4829649;29;20121;-70
2021/04/18 03:38:41;;;;;;;3.80;1.00;;;5.10;74.50;;;;;;4847355;29;20194;-70
2021/04/18 03:41:11;;;;;;;3.50;1.10;;;5.10;74.50;;;;;;4846390;29;20041;-70
2021/04/18 03:43:38;;;;;;;2.97;1.30;;;5.10;74.70;;;;;;4857560;29;20057;-70
2021/04/18 03:46:11;;;;;;;5.10;1.63;;;5.10;74.90;;;;;;4837022;29;20133;-70
2021/04/18 03:48:46;;;;;;;3.63;1.33;;;5.10;75.30;;;;;;4840190;29;20054;-72
2021/04/18 03:51:13;;;;;;;3.53;1.50;;;5.00;75.30;;;;;;4888820;29;20044;-72
2021/04/18 03:53:51;;;;;;;5.47;1.83;;;5.00;75.30;;;;;;4881915;29;20079;-72
2021/04/18 03:56:22;;;;;;;4.37;1.43;;;5.00;75.30;;;;;;4875612;29;20047;-72
2021/04/18 03:58:52;;;;;;;2.93;1.10;;;5.00;75.30;;;;;;4897319;29;20047;-72
2021/04/18 04:01:21;;;;;;;3.63;0.90;;;5.00;75.30;;;;;;4861936;29;20064;-72
2021/04/18 04:03:50;;;;;;;4.07;1.43;;;5.00;75.30;;;;;;4891693;29;20048;-72
2021/04/18 04:06:19;;;;;;;4.27;1.17;;;5.00;75.50;;;;;;4884350;29;20033;-72
2021/04/18 04:08:52;;;;;;;3.40;0.97;;;5.00;75.50;;;;;;4875061;29;20125;-70
2021/04/18 04:11:22;;;;;;;3.57;1.03;;;4.90;75.70;;;;;;4853086;29;20493;-71
2021/04/18 04:13:50;;;;;;;2.97;1.20;;;4.90;75.50;;;;;;4820983;29;20054;-71
2021/04/18 04:16:21;;;;;;;3.10;1.33;;;4.90;75.60;;;;;;4837005;29;20050;-70
2021/04/18 04:18:49;;;;;;;2.17;0.70;;;4.90;75.80;;;;;;4831453;29;20042;-71
2021/04/18 04:21:41;;;;;;;2.28;0.75;;;4.90;75.80;;;;;;4818453;29;20066;-72
2021/04/18 04:24:31;;;;;;;4.07;0.90;;;4.80;75.80;;;;;;4820135;29;20134;-72
2021/04/18 04:26:57;;;;;;;2.83;1.03;;;4.80;75.80;;;;;;4824300;29;20140;-72
2021/04/18 04:29:24;;;;;;;3.03;1.00;;;4.80;76.00;;;;;;4839863;29;20045;-72
2021/04/18 04:31:51;;;;;;;2.50;0.90;;;4.80;76.00;;;;;;4819983;29;20046;-72
2021/04/18 04:34:17;;;;;;;2.77;1.27;;;4.80;76.10;;;;;;4821172;29;20054;-72
2021/04/18 04:36:44;;;;;;;3.10;0.70;;;4.80;76.20;;;;;;4799169;29;20061;-72
2021/04/18 04:39:11;;;;;;;3.87;1.40;;;4.80;76.20;;;;;;4799048;29;20058;-72
2021/04/18 04:41:37;;;;;;;3.83;0.90;;;4.80;76.30;;;;;;4804324;29;20077;-72
2021/04/18 04:44:08;;;;;;;2.03;0.67;;;4.70;76.30;;;;;;4809298;29;20499;-72
2021/04/18 04:46:35;;;;;;;5.13;1.00;;;4.80;76.40;;;;;;4870148;29;20052;-72
2021/04/18 04:49:01;;;;;;;3.63;1.03;;;4.70;76.40;;;;;;4854252;29;20162;-72
2021/04/18 04:51:28;;;;;;;2.33;0.97;;;4.70;76.40;;;;;;4880011;29;20037;-72
2021/04/18 04:53:55;;;;;;;3.10;0.87;;;4.70;76.50;;;;;;4878246;29;20091;-72
2021/04/18 04:56:21;;;;;;;3.50;0.80;;;4.70;76.60;;;;;;4862380;29;20066;-72
2021/04/18 04:58:47;;;;;;;2.23;1.00;;;4.70;76.60;;;;;;4877064;29;20048;-73
2021/04/18 05:01:14;;;;;;;3.47;0.90;;;4.70;76.70;;;;;;4861232;29;20702;-72
2021/04/18 05:03:41;;;;;;;2.70;0.90;;;4.70;76.70;;;;;;4866852;29;20056;-73
2021/04/18 05:06:09;;;;;;;2.97;1.10;;;4.70;76.70;;;;;;4853106;29;20514;-73
2021/04/18 05:08:35;;;;;;;2.50;0.73;;;4.70;76.70;;;;;;4840986;29;20117;-72
2021/04/18 05:11:01;;;;;;;2.07;0.87;;;4.70;76.80;;;;;;4843442;29;20061;-72
2021/04/18 05:13:28;;;;;;;2.77;1.13;;;4.70;76.80;;;;;;4878243;29;20051;-72
2021/04/18 05:15:56;;;;;;;2.50;0.97;;;4.70;76.80;;;;;;4864947;29;20093;-72
2021/04/18 05:18:22;;;;;;;3.93;1.13;;;4.70;76.70;;;;;;4876126;29;20777;-72
2021/04/18 05:20:49;;;;;;;2.97;1.00;;;4.70;76.70;;;;;;4845755;29;20053;-72
2021/04/18 05:23:16;;;;;;;2.27;0.93;;;4.80;76.70;;;;;;4875919;29;20632;-72
2021/04/18 05:25:42;;;;;;;2.43;0.80;;;4.80;76.60;;;;;;4870175;29;20042;-72
2021/04/18 05:28:09;;;;;;;4.97;0.70;;;4.80;76.50;;;;;;4873470;29;20061;-72
2021/04/18 05:30:35;;;;;;;1.80;0.77;;;4.90;76.50;;;;;;4861458;29;20467;-72
2021/04/18 05:33:06;;;;;;;1.93;0.80;;;4.90;76.40;;;;;;4864034;29;20060;-72
2021/04/18 05:35:33;;;;;;;1.67;0.60;;;5.00;76.30;;;;;;4874750;29;20051;-71
2021/04/18 05:38:00;;;;;;;2.80;1.10;;;5.00;76.20;;;;;;4890994;29;20040;-72
2021/04/18 05:40:27;;;;;;;1.20;0.50;;;5.10;76.20;;;;;;4896158;29;20108;-72
2021/04/18 05:42:55;;;;;;;2.37;0.80;;;5.20;76.20;;;;;;4875721;29;20409;-72
2021/04/18 05:45:22;;;;;;;2.70;0.80;;;5.20;76.10;;;;;;4875441;29;20045;-72
2021/04/18 05:47:49;;;;;;;4.17;0.70;;;5.30;76.00;;;;;;4888360;29;20129;-72
2021/04/18 05:50:16;;;;;;;2.47;0.87;;;5.40;76.60;;;;;;4855444;29;20056;-72
2021/04/18 05:52:44;;;;;;;2.97;0.97;;;5.50;76.00;;;;;;4895231;29;20445;-72
2021/04/18 05:55:11;;;;;;;2.97;1.00;;;5.50;75.90;;;;;;4871663;29;20052;-72
2021/04/18 05:57:38;;;;;;;1.33;0.70;;;5.60;75.80;;;;;;4877468;29;20045;-73
2021/04/18 06:00:06;;;;;;;1.27;0.53;;;5.70;75.70;;;;;;4889903;29;20434;-72
2021/04/18 06:02:38;;;;;;;2.13;0.80;;;5.80;75.60;;;;;;4884373;29;20049;-72
2021/04/18 06:05:06;;;;;;;2.30;1.00;;;5.90;75.40;;;;;;4888143;29;20509;-72
2021/04/18 06:07:35;;;;;;;2.93;0.60;;;6.00;75.30;;;;;;4879437;29;20041;-72
2021/04/18 06:10:04;;;;;;;2.57;0.70;;;6.10;75.20;;;;;;4872894;29;20041;-73
2021/04/18 06:12:31;;;;;;;1.20;0.53;;;6.20;75.00;;;;;;4861695;29;20060;-70
2021/04/18 06:14:57;;;;;;;2.50;0.77;;;6.30;75.40;;;;;;4869982;29;20048;-70
2021/04/18 06:17:25;;;;;;;2.47;0.60;;;6.40;74.70;;;;;;4888028;29;20485;-70
2021/04/18 06:19:51;;;;;;;2.93;0.80;;;6.50;74.60;;;;;;4895184;29;20103;-70
2021/04/18 06:22:18;;;;;;;4.10;1.00;;;6.70;74.50;;;;;;4879266;29;20515;-70
2021/04/18 06:24:45;;;;;;;3.00;0.90;;;6.80;74.40;;;;;;4895346;29;20048;-70
2021/04/18 06:27:12;;;;;;;1.83;0.70;;;6.90;74.20;;;;;;4869116;29;20104;-72
2021/04/18 06:29:39;;;;;;;1.67;0.70;;;7.00;74.10;;;;;;4872757;29;20097;-73
2021/04/18 06:32:06;;;;;;;2.70;0.73;;;7.20;74.00;;;;;;4878006;29;20577;-73
2021/04/18 06:34:36;;;;;;;1.43;0.57;;;7.20;73.90;;;;;;4871603;29;20140;-73
2021/04/18 06:37:03;;;;;;;1.83;0.70;;;7.30;73.80;;;;;;4867715;29;20446;-73
2021/04/18 06:39:29;;;;;;;2.17;0.63;;;7.40;73.80;;;;;;4867827;29;20120;-73
2021/04/18 06:42:02;;;;;;;2.57;0.83;;;7.40;73.80;;;;;;4874050;29;20056;-73
2021/04/18 06:44:33;;;;;;;2.10;0.87;;;7.50;73.90;;;;;;4883020;29;20413;-73
2021/04/18 06:47:01;;;;;;;2.13;0.83;;;7.50;73.80;;;;;;4873210;29;20426;-73
2021/04/18 06:49:28;;;;;;;3.03;0.90;;;7.60;73.90;;;;;;4896582;29;20413;-72
2021/04/18 06:51:58;;;;;;;2.87;0.80;;;7.60;73.90;;;;;;4887887;29;20049;-72
2021/04/18 06:54:25;;;;;;;1.87;0.60;;;7.70;73.90;;;;;;4872704;29;20060;-73
2021/04/18 06:56:52;;;;;;;2.57;0.70;;;7.80;74.40;;;;;;4865243;29;20044;-73
2021/04/18 06:59:18;;;;;;;2.43;0.77;;;7.90;73.60;;;;;;4882368;29;20075;-73
2021/04/18 07:01:45;;;;;;;4.17;1.43;;;8.10;73.40;;;;;;4876239;29;20044;-73
2021/04/18 07:04:12;;;;;;;4.60;1.23;;;8.20;73.00;;;;;;4898564;29;20389;-73
2021/04/18 07:06:44;;;;;;;3.97;1.80;;;8.20;72.70;;;;;;4894406;29;20493;-73
2021/04/18 07:09:12;;;;;;;4.10;1.50;;;8.30;72.60;;;;;;4878501;29;20056;-70
2021/04/18 07:11:52;;;;;;;6.17;1.53;;;8.50;72.50;;;;;;4876595;29;20793;-70
2021/04/18 07:14:31;;;;;;;3.40;1.30;;;8.50;72.20;;;;;;4889244;29;20047;-70
2021/04/18 07:17:14;;;;;;;4.87;1.90;;;8.70;72.00;;;;;;4896118;29;20406;-70
2021/04/18 07:19:43;;;;;;;5.18;1.70;;;8.80;71.50;;;;;;4867484;29;20162;-70
2021/04/18 07:22:10;;;;;;;3.53;0.90;;;9.00;71.40;;;;;;4881068;29;20054;-71
2021/04/18 07:25:04;;;;;;;6.25;1.30;;;9.10;71.00;;;;;;4881389;29;20049;-70
2021/04/18 07:27:52;;;;;;;2.33;0.90;;;9.30;70.70;;;;;;4879022;29;20057;-71
2021/04/18 07:30:21;;;;;;;3.30;0.87;;;9.40;70.40;;;;;;4896749;29;20349;-71
2021/04/18 07:33:10;;;;;;;1.63;0.50;;;9.50;70.20;;;;;;4894150;29;20052;-71
2021/04/18 07:35:39;;;;;;;2.28;0.70;;;9.70;69.90;;;;;;4892543;29;20485;-71
2021/04/18 07:38:23;;;;;;;2.80;0.80;;;9.80;69.40;;;;;;4898281;29;20044;-71
2021/04/18 07:41:11;;;;;;;2.67;1.13;;;10.00;68.80;;;;;;4877467;29;20063;-71
2021/04/18 07:43:41;;;;;;;1.55;0.45;;;10.10;68.10;;;;;;4882283;29;20044;-73
2021/04/18 07:46:09;;;;;;;1.63;0.70;;;10.20;67.80;;;;;;4897154;29;20056;-73
2021/04/18 07:48:37;;;;;;;1.67;0.47;;;10.40;67.60;;;;;;4879146;29;20044;-73
2021/04/18 07:51:04;;;;;;;2.35;0.70;;;10.60;67.10;;;;;;4879121;29;20048;-73
2021/04/18 07:53:30;;;;;;;2.42;0.52;;;10.70;66.80;;;;;;4878233;29;20446;-73
2021/04/18 07:55:58;;;;;;;2.33;0.70;;;10.70;66.60;;;;;;4870815;29;20108;-73
2021/04/18 07:58:25;;;;;;;1.73;0.50;;;10.90;67.10;;;;;;4881564;29;20041;-73
2021/04/18 08:00:52;;;;;;;2.95;0.70;;;11.10;66.10;;;;;;4885613;29;20531;-73
2021/04/18 08:03:18;;;;;;;1.48;0.63;;;11.30;65.80;;;;;;4887215;29;20458;-73
2021/04/18 08:05:46;;;;;;;2.33;0.82;;;11.50;65.30;;;;;;4889893;29;20044;-74
2021/04/18 08:08:15;;;;;;;3.45;1.02;;;11.70;64.90;;;;;;4893034;29;20048;-74
2021/04/18 08:10:47;;;;;;;2.42;0.68;;;11.90;64.20;;;;;;4879021;29;20100;-74
2021/04/18 08:13:26;;;;;;;1.73;0.55;;;12.00;64.00;;;;;;4869074;29;20037;-73
2021/04/18 08:15:57;;;;;;;2.97;0.90;;;12.00;63.70;;;;;;4878316;29;20057;-73
2021/04/18 08:18:44;;;;;;;2.63;0.93;;;12.00;63.00;;;;;;4868714;29;20040;-74
2021/04/18 08:21:31;;;;;;;2.15;0.80;;;12.10;63.00;;;;;;4870787;29;20135;-80
2021/04/18 08:24:00;;;;;;;2.08;0.75;;;12.20;62.40;;;;;;4898202;29;20045;-76
2021/04/18 08:26:31;;;;;;;2.33;0.65;;;12.20;62.40;;;;;;4892527;29;20068;-75
2021/04/18 08:29:04;;;;;;;2.00;0.60;;;12.20;62.10;;;;;;4862669;29;20041;-76
2021/04/18 08:31:49;;;;;;;1.42;0.47;;;12.30;62.10;;;;;;4896289;29;20096;-75
2021/04/18 08:34:31;;;;;;;2.40;0.80;;;12.40;61.90;;;;;;4881250;29;20068;-75
2021/04/18 08:36:59;;;;;;;2.00;0.60;;;12.40;61.70;;;;;;4878393;29;20040;-75
2021/04/18 08:39:28;;;;;;;3.20;0.85;;;12.30;61.70;;;;;;4863495;29;20064;-74
2021/04/18 08:42:00;;;;;;;1.55;0.47;;;12.30;61.90;;;;;;4893164;29;20410;-75
2021/04/18 08:44:30;;;;;;;2.70;0.80;;;12.30;61.90;;;;;;4873105;29;20068;-75
2021/04/18 08:47:06;;;;;;;2.78;0.60;;;12.40;61.60;;;;;;4893471;29;20504;-74
2021/04/18 08:49:45;;;;;;;2.28;0.70;;;12.40;61.40;;;;;;4865889;29;20049;-75
2021/04/18 08:52:11;;;;;;;2.22;0.80;;;12.40;61.00;;;;;;4885476;29;20029;-75
2021/04/18 08:54:41;;;;;;;2.65;1.02;;;12.40;60.40;;;;;;4889779;29;20066;-76
2021/04/18 08:57:13;;;;;;;3.08;1.40;;;12.20;60.50;;;;;;4892013;29;20045;-75
2021/04/18 08:59:42;;;;;;;2.47;1.05;;;12.00;60.00;;;;;;4897074;29;20058;-76
2021/04/18 09:02:13;;;;;;;1.98;0.90;;;12.00;60.20;;;;;;4867398;29;20051;-76
2021/04/18 09:04:43;;;;;;;1.67;0.73;;;12.10;59.80;;;;;;4898273;29;20095;-75
2021/04/18 09:07:15;;;;;;;2.10;0.68;;;12.20;60.00;;;;;;4890900;29;20049;-77
2021/04/18 09:09:43;;;;;;;2.78;0.70;;;12.40;59.80;;;;;;4898269;29;20069;-76
2021/04/18 09:12:11;;;;;;;1.75;0.68;;;12.50;59.40;;;;;;4895409;29;20116;-75
2021/04/18 09:14:42;;;;;;;3.58;0.70;;;12.60;59.10;;;;;;4896796;29;20040;-75
2021/04/18 09:17:22;;;;;;;1.75;0.70;;;12.70;58.80;;;;;;4896412;29;20040;-75
2021/04/18 09:19:52;;;;;;;4.70;0.85;;;12.80;58.00;;;;;;4896674;29;20825;-75
2021/04/18 09:22:32;;;;;;;2.38;0.77;;;12.90;58.20;;;;;;4887083;29;20048;-76
2021/04/18 09:25:07;;;;;;;2.13;0.70;;;13.00;57.90;;;;;;4879359;29;20052;-75
2021/04/18 09:27:36;;;;;;;3.17;0.80;;;13.10;57.80;;;;;;4871723;29;20049;-75
2021/04/18 09:30:05;;;;;;;2.65;0.70;;;13.20;57.20;;;;;;4888337;29;20618;-74
2021/04/18 09:32:34;;;;;;;1.90;0.73;;;13.40;56.70;;;;;;4897125;29;20048;-75
2021/04/18 09:35:02;;;;;;;1.92;0.70;;;13.40;56.60;;;;;;4878781;29;20041;-75
2021/04/18 09:37:31;;;;;;;5.28;1.00;;;13.60;56.40;;;;;;4878105;29;20465;-74
2021/04/18 09:40:03;;;;;;;4.10;1.20;;;13.60;55.10;;;;;;4878853;29;20065;-75
2021/04/18 09:42:32;;;;;;;2.63;0.80;;;13.70;54.80;;;;;;4873444;29;20052;-74
2021/04/18 09:45:13;;;;;;;2.40;1.00;;;13.80;55.00;;;;;;4876323;29;20053;-79
2021/04/18 09:47:40;;;;;;;1.70;0.60;;;13.80;54.70;;;;;;4877393;29;20041;-76
2021/04/18 09:50:16;;;;;;;3.13;1.13;;;13.90;55.00;;;;;;4870623;29;20128;-76
2021/04/18 09:52:43;;;;;;;2.47;1.02;;;13.90;54.50;;;;;;4869597;29;20045;-77
2021/04/18 09:55:12;;;;;;;2.30;0.70;;;13.80;54.30;;;;;;4867112;29;20057;-77
2021/04/18 09:57:57;;;;;;;1.92;0.60;;;13.80;54.50;;;;;;4877640;29;20544;-75
2021/04/18 10:00:30;;;;;;;1.35;0.40;;;13.90;54.40;;;;;;4866356;29;20037;-75
2021/04/18 10:03:03;;;;;;;1.85;0.80;;;14.10;54.50;;;;;;4862182;29;20098;-75
2021/04/18 10:05:32;;;;;;;2.78;0.80;;;14.40;53.70;;;;;;4874263;29;20494;-75
2021/04/18 10:08:22;;;;;;;3.75;0.90;;;14.50;53.50;;;;;;4875361;29;20049;-77
2021/04/18 10:11:15;;;;;;;1.60;0.65;;;14.70;52.90;;;;;;4876809;29;20048;-74
2021/04/18 10:13:48;;;;;;;2.70;0.88;;;14.90;53.00;;;;;;4874166;29;20036;-73
2021/04/18 10:16:22;;;;;;;3.42;1.15;;;15.00;52.50;;;;;;4870440;29;20054;-75
2021/04/18 10:19:10;;;;;;;3.85;1.15;;;15.20;51.90;;;;;;4877308;29;20072;-75
2021/04/18 10:21:39;;;;;;;3.55;1.33;;;15.40;51.60;;;;;;4876626;29;20041;-75
2021/04/18 10:24:36;;;;;;;3.75;0.95;;;15.60;51.20;;;;;;4877258;29;20045;-75
2021/04/18 10:27:06;;;;;;;4.82;1.10;;;15.70;51.10;;;;;;4875669;29;20135;-75
2021/04/18 10:29:33;;;;;;;6.20;1.35;;;15.60;51.40;;;;;;4876230;29;20168;-75
2021/04/18 10:32:00;;;;;;;4.20;1.13;;;15.40;50.90;;;;;;4873140;29;20109;-75
2021/04/18 10:34:27;;;;;;;2.72;1.15;;;15.30;51.40;;;;;;4861215;29;20132;-75
2021/04/18 10:36:55;;;;;;;3.15;1.25;;;15.20;51.30;;;;;;4894607;29;20044;-75
2021/04/18 10:39:22;;;;;;;3.78;1.35;;;15.20;51.50;;;;;;4859054;29;20044;-75
2021/04/18 10:41:50;;;;;;;2.60;1.10;;;15.20;51.70;;;;;;4880197;29;20067;-75
2021/04/18 10:44:17;;;;;;;2.58;1.00;;;15.20;51.60;;;;;;4863706;29;20037;-74
2021/04/18 10:46:45;;;;;;;2.53;0.90;;;15.20;51.80;;;;;;4897178;29;20052;-77
2021/04/18 10:49:14;;;;;;;3.10;1.40;;;15.30;51.60;;;;;;4866698;29;20419;-77
2021/04/18 10:51:44;;;;;;;7.15;2.20;;;15.90;50.50;;;;;;4865316;29;20474;-76
2021/04/18 10:54:11;;;;;;;4.60;2.30;;;16.50;49.50;;;;;;4842792;29;20040;-76
2021/04/18 10:56:38;;;;;;;4.72;2.63;;;17.00;48.60;;;;;;4884942;29;20426;-77
2021/04/18 10:59:04;;;;;;;5.20;2.45;;;17.50;48.00;;;;;;4885973;29;20048;-76
2021/04/18 11:01:31;;;;;;;5.03;2.13;;;17.90;47.10;;;;;;4886583;29;20052;-76
2021/04/18 11:03:57;;;;;;;5.65;1.85;;;18.10;46.80;;;;;;4893859;29;20388;-75
2021/04/18 11:06:25;;;;;;;3.13;1.38;;;18.20;46.80;;;;;;4885236;29;20132;-76
2021/04/18 11:08:54;;;;;;;4.30;2.13;;;18.20;46.70;;;;;;4860616;29;20584;-76
2021/04/18 11:11:23;;;;;;;5.60;1.73;;;17.60;47.60;;;;;;4879552;29;20045;-76
2021/04/18 11:13:51;;;;;;;4.13;1.67;;;17.10;48.40;;;;;;4883573;29;20044;-78
2021/04/18 11:16:18;;;;;;;7.10;2.70;;;16.90;49.40;;;;;;4862534;29;20053;-78
2021/04/18 11:18:45;;;;;;;6.35;2.92;;;16.70;49.50;;;;;;4864934;29;20044;-76
2021/04/18 11:21:12;;;;;;;7.78;3.63;;;16.50;49.20;;;;;;4872457;29;20482;-75
2021/04/18 11:23:41;;;;;;;5.30;2.30;;;16.20;49.30;;;;;;4861248;29;20045;-77
2021/04/18 11:26:07;;;;;;;5.10;2.13;;;16.40;49.80;;;;;;4862920;29;20045;-77
2021/04/18 11:28:34;;;;;;;5.78;1.90;;;17.00;49.20;;;;;;4894704;29;20132;-74
2021/04/18 11:31:01;;;;;;;3.95;1.95;;;17.40;48.30;;;;;;4892543;29;20068;-76
2021/04/18 11:33:27;;;;;;;3.33;1.73;;;17.80;47.80;;;;;;4855323;29;20048;-75
2021/04/18 11:35:54;;;;;;;3.10;1.50;;;18.50;47.10;;;;;;4890618;29;20068;-76
2021/04/18 11:38:26;;;;;;;6.13;2.05;;;19.00;46.30;;;;;;4875486;29;20512;-77
2021/04/18 11:40:55;;;;;;;5.20;1.73;;;19.50;45.60;;;;;;4886513;29;20101;-77
2021/04/18 11:43:22;;;;;;;4.78;2.00;;;19.40;45.50;;;;;;4884803;29;20505;-76
2021/04/18 11:45:49;;;;;;;5.22;1.60;;;19.30;45.80;;;;;;4883627;29;20048;-76
2021/04/18 11:48:15;;;;;;;3.00;1.60;;;19.10;46.20;;;;;;4880945;29;20052;-76
2021/04/18 11:50:42;;;;;;;4.78;1.60;;;19.20;46.40;;;;;;4865281;29;20454;-76
2021/04/18 11:53:09;;;;;;;5.07;1.50;;;19.80;45.80;;;;;;4859101;29;20581;-76
2021/04/18 11:55:37;;;;;;;4.32;2.10;;;20.00;45.30;;;;;;4863190;29;20394;-75
2021/04/18 11:58:05;;;;;;;5.72;2.20;;;20.10;44.60;;;;;;4878679;29;20112;-75
2021/04/18 12:00:32;;;;;;;3.22;1.55;;;19.90;45.20;;;;;;4882302;29;20064;-76
2021/04/18 12:02:58;;;;;;;5.70;2.20;;;20.20;44.80;;;;;;4878074;29;20041;-74
2021/04/18 12:05:25;;;;;;;3.80;1.83;;;20.30;43.80;;;;;;4878138;29;20048;-74
2021/04/18 12:07:51;;;;;;;3.67;1.70;;;20.10;43.90;;;;;;4866775;29;20041;-74
2021/04/18 12:10:18;;;;;;;3.33;1.90;;;19.70;44.70;;;;;;4882823;29;20493;-74
2021/04/18 12:12:45;;;;;;;3.95;2.03;;;19.30;45.10;;;;;;4881855;29;20139;-74
2021/04/18 12:15:13;;;;;;;3.75;1.80;;;18.90;45.60;;;;;;4898984;29;20040;-74
2021/04/18 12:17:40;;;;;;;4.20;1.58;;;18.60;46.00;;;;;;4887957;29;20057;-74
2021/04/18 12:20:10;;;;;;;4.15;1.42;;;18.40;46.50;;;;;;4898969;29;20051;-74
2021/04/18 12:22:37;;;;;;;4.90;2.10;;;18.10;47.00;;;;;;4884300;29;20486;-75
2021/04/18 12:25:08;;;;;;;5.35;2.53;;;18.00;46.90;;;;;;4871620;29;20081;-74
2021/04/18 12:27:35;;;;;;;4.78;2.22;;;17.90;46.20;;;;;;4887472;29;20398;-75
2021/04/18 12:30:06;;;;;;;3.67;1.95;;;17.80;46.50;;;;;;4871839;29;20037;-75
2021/04/18 12:32:33;;;;;;;6.30;1.90;;;17.80;46.70;;;;;;4888794;29;20102;-75
2021/04/18 12:34:59;;;;;;;5.47;1.73;;;17.70;46.80;;;;;;4877569;29;20057;-75
2021/04/18 12:37:26;;;;;;;5.72;1.98;;;17.70;46.80;;;;;;4899035;29;20067;-75
2021/04/18 12:39:52;;;;;;;2.90;0.98;;;17.70;46.90;;;;;;4891464;29;20045;-75
2021/04/18 12:42:19;;;;;;;5.22;1.67;;;17.80;47.00;;;;;;4881928;29;20533;-75
2021/04/18 12:44:46;;;;;;;6.60;1.75;;;18.00;46.70;;;;;;4898828;29;20435;-75
2021/04/18 12:47:13;;;;;;;4.68;2.00;;;18.00;46.40;;;;;;4898595;29;20417;-76
2021/04/18 12:49:42;;;;;;;4.35;1.95;;;18.10;46.30;;;;;;4872824;29;20037;-75
2021/04/18 12:52:09;;;;;;;3.25;1.00;;;18.10;46.20;;;;;;4882205;29;20489;-76
2021/04/18 12:54:37;;;;;;;4.38;1.92;;;18.10;46.50;;;;;;4893293;29;20052;-77
2021/04/18 12:57:04;;;;;;;3.55;1.70;;;18.10;46.40;;;;;;4879538;29;20040;-77
2021/04/18 12:59:34;;;;;;;3.38;1.40;;;18.00;46.40;;;;;;4886722;29;20060;-77
2021/04/18 13:02:01;;;;;;;3.85;0.90;;;18.00;46.60;;;;;;4894558;29;20493;-77
2021/04/18 13:04:28;;;;;;;3.85;1.10;;;18.00;46.50;;;;;;4898399;29;20048;-80
2021/04/18 13:06:54;;;;;;;2.42;0.93;;;18.10;46.40;;;;;;4895504;29;20148;-75